KCSV

Crossville Memorial-Whitson Field Airport

Crossville, Tennessee, USA
METAR KCSV 160653Z AUTO 28009G15KT 240V320 10SM OVC006 M03/M04 A3010 RMK AO2 SLP209 T10281044
Observed Flight Rules
Nov-16 @ 06:53 UTC (48 minutes ago) Instrument Flight Rules
Wind Visibility Clouds
280° at 9 knots
 Gusting to 15 knots
10 miles
  • Overcast at 600' AGL
Temperatures Readings
Current -3°C / 27°F
Dewpoint -4°C / 25°F
Humidity 93%
Altimeter 30.1" Hg
Pressure 1020.9 hPa
Elevation 570
METAR KCSV 160653Z AUTO 28009G15KT 240V320 10SM OVC006 M03/M04 A3010 RMK AO2 SLP209 T10281044
Observed Flight Rules
Nov-16 @ 06:53 UTC
(48 minutes ago)
IFR
Wind Visibility
280° at 9 knots
 Gusting to 15 knots
10 miles
Clouds
  • Overcast at 600' AGL
Temperature Dewpoint
-3°C / 27°F -4°C / 25°F
Humidity Altimeter Pressure
93% 30.1" Hg 1020.9 hPa